sensor_id;sensor_type;location;lat;lon;timestamp;temperature;humidity
42479;DHT22;28110;47.080;9.476;2023-04-29T00:00:38;13.00;99.90
42479;DHT22;28110;47.080;9.476;2023-04-29T00:03:04;13.00;99.90
42479;DHT22;28110;47.080;9.476;2023-04-29T00:05:29;13.00;99.90
42479;DHT22;28110;47.080;9.476;2023-04-29T00:07:55;13.00;99.90
42479;DHT22;28110;47.080;9.476;2023-04-29T00:10:22;13.00;99.90
42479;DHT22;28110;47.080;9.476;2023-04-29T00:12:47;13.00;99.90
42479;DHT22;28110;47.080;9.476;2023-04-29T00:15:13;12.90;99.90
42479;DHT22;28110;47.080;9.476;2023-04-29T00:17:39;12.90;99.90
42479;DHT22;28110;47.080;9.476;2023-04-29T00:20:05;12.90;99.90
42479;DHT22;28110;47.080;9.476;2023-04-29T00:22:31;12.90;99.90
42479;DHT22;28110;47.080;9.476;2023-04-29T00:24:57;12.90;99.90
42479;DHT22;28110;47.080;9.476;2023-04-29T00:27:22;12.90;99.90
42479;DHT22;28110;47.080;9.476;2023-04-29T00:29:48;12.90;99.90
42479;DHT22;28110;47.080;9.476;2023-04-29T00:32:13;12.90;99.90
42479;DHT22;28110;47.080;9.476;2023-04-29T00:34:39;12.80;99.90
42479;DHT22;28110;47.080;9.476;2023-04-29T00:37:04;12.90;99.90
42479;DHT22;28110;47.080;9.476;2023-04-29T00:39:30;12.80;99.90
42479;DHT22;28110;47.080;9.476;2023-04-29T00:41:56;12.70;99.90
42479;DHT22;28110;47.080;9.476;2023-04-29T00:44:21;12.70;99.90
42479;DHT22;28110;47.080;9.476;2023-04-29T00:46:47;12.70;99.90
42479;DHT22;28110;47.080;9.476;2023-04-29T00:49:13;12.70;99.90
42479;DHT22;28110;47.080;9.476;2023-04-29T00:51:39;12.80;99.90
42479;DHT22;28110;47.080;9.476;2023-04-29T00:54:06;12.80;99.90
42479;DHT22;28110;47.080;9.476;2023-04-29T00:56:34;12.70;99.90
42479;DHT22;28110;47.080;9.476;2023-04-29T00:59:01;12.80;99.90
42479;DHT22;28110;47.080;9.476;2023-04-29T01:01:28;12.80;99.90
42479;DHT22;28110;47.080;9.476;2023-04-29T01:03:54;12.80;99.90
42479;DHT22;28110;47.080;9.476;2023-04-29T01:09:58;12.90;99.90
42479;DHT22;28110;47.080;9.476;2023-04-29T01:12:10;12.90;99.90
42479;DHT22;28110;47.080;9.476;2023-04-29T01:14:42;12.80;99.90
42479;DHT22;28110;47.080;9.476;2023-04-29T01:17:11;12.70;99.90
42479;DHT22;28110;47.080;9.476;2023-04-29T01:19:54;12.70;99.90
42479;DHT22;28110;47.080;9.476;2023-04-29T01:22:21;12.70;99.90
42479;DHT22;28110;47.080;9.476;2023-04-29T01:24:47;12.70;99.90
42479;DHT22;28110;47.080;9.476;2023-04-29T01:27:23;12.60;99.90
42479;DHT22;28110;47.080;9.476;2023-04-29T01:30:26;12.70;99.90
42479;DHT22;28110;47.080;9.476;2023-04-29T01:33:14;12.80;99.90
42479;DHT22;28110;47.080;9.476;2023-04-29T01:41:50;12.70;99.90
42479;DHT22;28110;47.080;9.476;2023-04-29T01:44:23;12.60;99.90
42479;DHT22;28110;47.080;9.476;2023-04-29T01:46:51;12.60;99.90
42479;DHT22;28110;47.080;9.476;2023-04-29T01:49:27;12.60;99.90
42479;DHT22;28110;47.080;9.476;2023-04-29T01:51:53;12.60;99.90
42479;DHT22;28110;47.080;9.476;2023-04-29T01:54:19;12.50;99.90
42479;DHT22;28110;47.080;9.476;2023-04-29T01:56:46;12.50;99.90
42479;DHT22;28110;47.080;9.476;2023-04-29T01:59:12;12.50;99.90
42479;DHT22;28110;47.080;9.476;2023-04-29T02:01:37;12.40;99.90
42479;DHT22;28110;47.080;9.476;2023-04-29T02:04:03;12.40;99.90
42479;DHT22;28110;47.080;9.476;2023-04-29T02:06:28;12.40;99.90
42479;DHT22;28110;47.080;9.476;2023-04-29T02:08:56;12.40;99.90
42479;DHT22;28110;47.080;9.476;2023-04-29T02:11:22;12.40;99.90
42479;DHT22;28110;47.080;9.476;2023-04-29T02:13:47;12.50;99.90
42479;DHT22;28110;47.080;9.476;2023-04-29T02:16:14;12.50;99.90
42479;DHT22;28110;47.080;9.476;2023-04-29T02:18:40;12.40;99.90
42479;DHT22;28110;47.080;9.476;2023-04-29T02:21:06;12.50;99.90
42479;DHT22;28110;47.080;9.476;2023-04-29T02:23:33;12.50;99.90
42479;DHT22;28110;47.080;9.476;2023-04-29T02:25:58;12.50;99.90
42479;DHT22;28110;47.080;9.476;2023-04-29T02:28:24;12.50;99.90
42479;DHT22;28110;47.080;9.476;2023-04-29T02:30:50;12.50;99.90
42479;DHT22;28110;47.080;9.476;2023-04-29T02:33:16;12.40;99.90
42479;DHT22;28110;47.080;9.476;2023-04-29T02:35:42;12.40;99.90
42479;DHT22;28110;47.080;9.476;2023-04-29T02:38:08;12.40;99.90
42479;DHT22;28110;47.080;9.476;2023-04-29T02:40:39;12.50;99.90
42479;DHT22;28110;47.080;9.476;2023-04-29T02:43:05;12.50;99.90
42479;DHT22;28110;47.080;9.476;2023-04-29T02:45:30;12.50;99.90
42479;DHT22;28110;47.080;9.476;2023-04-29T02:47:56;12.50;99.90
42479;DHT22;28110;47.080;9.476;2023-04-29T02:50:21;12.60;99.90
42479;DHT22;28110;47.080;9.476;2023-04-29T02:52:47;12.60;99.90
42479;DHT22;28110;47.080;9.476;2023-04-29T02:55:12;12.60;99.90
42479;DHT22;28110;47.080;9.476;2023-04-29T02:57:38;12.60;99.90
42479;DHT22;28110;47.080;9.476;2023-04-29T03:00:06;12.50;99.90
42479;DHT22;28110;47.080;9.476;2023-04-29T03:02:31;12.50;99.90
42479;DHT22;28110;47.080;9.476;2023-04-29T03:04:57;12.50;99.90
42479;DHT22;28110;47.080;9.476;2023-04-29T03:07:22;12.50;99.90
42479;DHT22;28110;47.080;9.476;2023-04-29T03:09:48;12.50;99.90
42479;DHT22;28110;47.080;9.476;2023-04-29T03:12:13;12.60;99.90
42479;DHT22;28110;47.080;9.476;2023-04-29T03:14:41;12.70;99.90
42479;DHT22;28110;47.080;9.476;2023-04-29T03:17:06;12.70;99.90
42479;DHT22;28110;47.080;9.476;2023-04-29T03:19:32;12.80;99.90
42479;DHT22;28110;47.080;9.476;2023-04-29T03:21:57;12.90;99.90
42479;DHT22;28110;47.080;9.476;2023-04-29T03:24:23;12.90;99.90
42479;DHT22;28110;47.080;9.476;2023-04-29T03:26:48;12.90;99.90
42479;DHT22;28110;47.080;9.476;2023-04-29T03:29:14;12.90;99.90
42479;DHT22;28110;47.080;9.476;2023-04-29T03:31:39;12.70;99.90
42479;DHT22;28110;47.080;9.476;2023-04-29T03:34:06;12.80;99.90
42479;DHT22;28110;47.080;9.476;2023-04-29T03:36:31;12.80;99.90
42479;DHT22;28110;47.080;9.476;2023-04-29T03:38:57;12.80;99.90
42479;DHT22;28110;47.080;9.476;2023-04-29T03:41:22;12.80;99.90
42479;DHT22;28110;47.080;9.476;2023-04-29T03:43:48;12.80;99.90
42479;DHT22;28110;47.080;9.476;2023-04-29T03:46:14;12.80;99.90
42479;DHT22;28110;47.080;9.476;2023-04-29T03:48:39;12.70;99.90
42479;DHT22;28110;47.080;9.476;2023-04-29T03:51:05;12.70;99.90
42479;DHT22;28110;47.080;9.476;2023-04-29T03:53:31;12.70;99.90
42479;DHT22;28110;47.080;9.476;2023-04-29T03:55:57;12.70;99.90
42479;DHT22;28110;47.080;9.476;2023-04-29T03:58:23;12.70;99.90
42479;DHT22;28110;47.080;9.476;2023-04-29T04:00:49;12.80;99.90
42479;DHT22;28110;47.080;9.476;2023-04-29T04:03:14;12.70;99.90
42479;DHT22;28110;47.080;9.476;2023-04-29T04:05:40;12.70;99.90
42479;DHT22;28110;47.080;9.476;2023-04-29T04:08:05;12.70;99.90
42479;DHT22;28110;47.080;9.476;2023-04-29T04:10:31;12.60;99.90
42479;DHT22;28110;47.080;9.476;2023-04-29T04:12:57;12.60;99.90
42479;DHT22;28110;47.080;9.476;2023-04-29T04:15:22;12.60;99.90
42479;DHT22;28110;47.080;9.476;2023-04-29T04:17:48;12.50;99.90
42479;DHT22;28110;47.080;9.476;2023-04-29T04:20:13;12.50;99.90
42479;DHT22;28110;47.080;9.476;2023-04-29T04:22:39;12.50;99.90
42479;DHT22;28110;47.080;9.476;2023-04-29T04:25:06;12.50;99.90
42479;DHT22;28110;47.080;9.476;2023-04-29T04:27:31;12.60;99.90
42479;DHT22;28110;47.080;9.476;2023-04-29T04:29:57;12.60;99.90
42479;DHT22;28110;47.080;9.476;2023-04-29T04:32:22;12.60;99.90
42479;DHT22;28110;47.080;9.476;2023-04-29T04:34:49;12.60;99.90
42479;DHT22;28110;47.080;9.476;2023-04-29T04:37:15;12.50;99.90
42479;DHT22;28110;47.080;9.476;2023-04-29T04:39:40;12.50;99.90
42479;DHT22;28110;47.080;9.476;2023-04-29T04:42:06;12.50;99.90
42479;DHT22;28110;47.080;9.476;2023-04-29T04:44:32;12.50;99.90
42479;DHT22;28110;47.080;9.476;2023-04-29T04:46:58;12.50;99.90
42479;DHT22;28110;47.080;9.476;2023-04-29T04:49:25;12.50;99.90
42479;DHT22;28110;47.080;9.476;2023-04-29T04:51:52;12.50;99.90
42479;DHT22;28110;47.080;9.476;2023-04-29T04:54:17;12.50;99.90
42479;DHT22;28110;47.080;9.476;2023-04-29T04:56:43;12.40;99.90
42479;DHT22;28110;47.080;9.476;2023-04-29T04:59:08;12.40;99.90
42479;DHT22;28110;47.080;9.476;2023-04-29T05:01:34;12.40;99.90
42479;DHT22;28110;47.080;9.476;2023-04-29T05:04:00;12.40;99.90
42479;DHT22;28110;47.080;9.476;2023-04-29T05:06:27;12.40;99.90
42479;DHT22;28110;47.080;9.476;2023-04-29T05:08:52;12.40;99.90
42479;DHT22;28110;47.080;9.476;2023-04-29T05:11:21;12.40;99.90
42479;DHT22;28110;47.080;9.476;2023-04-29T05:13:47;12.50;99.90
42479;DHT22;28110;47.080;9.476;2023-04-29T05:16:13;12.50;99.90
42479;DHT22;28110;47.080;9.476;2023-04-29T05:18:39;12.50;99.90
42479;DHT22;28110;47.080;9.476;2023-04-29T05:21:04;12.50;99.90
42479;DHT22;28110;47.080;9.476;2023-04-29T05:23:30;12.50;99.90
42479;DHT22;28110;47.080;9.476;2023-04-29T05:25:57;12.60;99.90
42479;DHT22;28110;47.080;9.476;2023-04-29T05:28:23;12.60;99.90
42479;DHT22;28110;47.080;9.476;2023-04-29T05:30:51;12.60;99.90
42479;DHT22;28110;47.080;9.476;2023-04-29T05:33:16;12.50;99.90
42479;DHT22;28110;47.080;9.476;2023-04-29T05:35:42;12.50;99.90
42479;DHT22;28110;47.080;9.476;2023-04-29T05:38:08;12.40;99.90
42479;DHT22;28110;47.080;9.476;2023-04-29T05:40:33;12.40;99.90
42479;DHT22;28110;47.080;9.476;2023-04-29T05:42:59;12.40;99.90
42479;DHT22;28110;47.080;9.476;2023-04-29T05:45:25;12.40;99.90
42479;DHT22;28110;47.080;9.476;2023-04-29T05:47:50;12.40;99.90
42479;DHT22;28110;47.080;9.476;2023-04-29T05:50:16;12.50;99.90
42479;DHT22;28110;47.080;9.476;2023-04-29T05:52:41;12.50;99.90
42479;DHT22;28110;47.080;9.476;2023-04-29T05:55:07;12.50;99.90
42479;DHT22;28110;47.080;9.476;2023-04-29T05:57:33;12.60;99.90
42479;DHT22;28110;47.080;9.476;2023-04-29T05:59:58;12.60;99.90
42479;DHT22;28110;47.080;9.476;2023-04-29T06:02:25;12.70;99.90
42479;DHT22;28110;47.080;9.476;2023-04-29T06:04:51;12.70;99.90
42479;DHT22;28110;47.080;9.476;2023-04-29T06:07:17;12.80;99.90
42479;DHT22;28110;47.080;9.476;2023-04-29T06:09:43;12.80;99.90
42479;DHT22;28110;47.080;9.476;2023-04-29T06:12:09;12.80;99.90
42479;DHT22;28110;47.080;9.476;2023-04-29T06:14:35;12.80;99.90
42479;DHT22;28110;47.080;9.476;2023-04-29T06:17:00;12.90;99.90
42479;DHT22;28110;47.080;9.476;2023-04-29T06:19:26;12.90;99.90
42479;DHT22;28110;47.080;9.476;2023-04-29T06:21:52;13.00;99.90
42479;DHT22;28110;47.080;9.476;2023-04-29T06:24:17;13.00;99.90
42479;DHT22;28110;47.080;9.476;2023-04-29T06:26:43;13.10;99.90
42479;DHT22;28110;47.080;9.476;2023-04-29T06:29:08;13.20;99.90
42479;DHT22;28110;47.080;9.476;2023-04-29T06:31:34;13.20;99.90
42479;DHT22;28110;47.080;9.476;2023-04-29T06:33:59;13.20;99.90
42479;DHT22;28110;47.080;9.476;2023-04-29T06:36:25;13.20;99.90
42479;DHT22;28110;47.080;9.476;2023-04-29T06:38:51;13.30;99.90
42479;DHT22;28110;47.080;9.476;2023-04-29T06:41:17;13.30;99.90
42479;DHT22;28110;47.080;9.476;2023-04-29T06:43:43;13.50;99.90
42479;DHT22;28110;47.080;9.476;2023-04-29T06:46:09;13.50;99.90
42479;DHT22;28110;47.080;9.476;2023-04-29T06:48:35;13.50;99.90
42479;DHT22;28110;47.080;9.476;2023-04-29T06:51:00;13.60;99.90
42479;DHT22;28110;47.080;9.476;2023-04-29T06:53:26;13.70;99.90
42479;DHT22;28110;47.080;9.476;2023-04-29T06:55:52;13.70;99.90
42479;DHT22;28110;47.080;9.476;2023-04-29T06:58:18;13.80;99.90
42479;DHT22;28110;47.080;9.476;2023-04-29T07:00:45;13.80;99.90
42479;DHT22;28110;47.080;9.476;2023-04-29T07:03:11;13.90;99.90
42479;DHT22;28110;47.080;9.476;2023-04-29T07:05:37;13.90;99.90
42479;DHT22;28110;47.080;9.476;2023-04-29T07:08:07;14.00;99.90
42479;DHT22;28110;47.080;9.476;2023-04-29T07:10:34;14.00;99.90
42479;DHT22;28110;47.080;9.476;2023-04-29T07:13:00;14.40;99.90
42479;DHT22;28110;47.080;9.476;2023-04-29T07:15:26;14.70;99.90
42479;DHT22;28110;47.080;9.476;2023-04-29T07:17:52;15.20;99.90
42479;DHT22;28110;47.080;9.476;2023-04-29T07:20:17;15.50;99.90
42479;DHT22;28110;47.080;9.476;2023-04-29T07:22:43;15.80;99.90
42479;DHT22;28110;47.080;9.476;2023-04-29T07:25:09;16.00;99.90
42479;DHT22;28110;47.080;9.476;2023-04-29T07:27:35;16.20;99.90
42479;DHT22;28110;47.080;9.476;2023-04-29T07:30:01;16.40;99.90
42479;DHT22;28110;47.080;9.476;2023-04-29T07:32:27;16.50;99.90
42479;DHT22;28110;47.080;9.476;2023-04-29T07:34:53;16.70;99.90
42479;DHT22;28110;47.080;9.476;2023-04-29T07:37:18;16.80;99.90
42479;DHT22;28110;47.080;9.476;2023-04-29T07:39:44;16.90;99.90
42479;DHT22;28110;47.080;9.476;2023-04-29T07:42:10;17.00;99.90
42479;DHT22;28110;47.080;9.476;2023-04-29T07:44:35;17.00;99.90
42479;DHT22;28110;47.080;9.476;2023-04-29T07:47:01;17.00;99.90
42479;DHT22;28110;47.080;9.476;2023-04-29T07:49:26;17.20;99.90
42479;DHT22;28110;47.080;9.476;2023-04-29T07:51:52;17.30;99.90
42479;DHT22;28110;47.080;9.476;2023-04-29T07:54:17;17.40;99.90
42479;DHT22;28110;47.080;9.476;2023-04-29T07:56:44;17.50;99.90
42479;DHT22;28110;47.080;9.476;2023-04-29T07:59:10;17.70;99.90
42479;DHT22;28110;47.080;9.476;2023-04-29T08:01:35;17.70;99.90
42479;DHT22;28110;47.080;9.476;2023-04-29T08:04:01;17.90;99.90
42479;DHT22;28110;47.080;9.476;2023-04-29T08:06:26;18.00;99.90
42479;DHT22;28110;47.080;9.476;2023-04-29T08:08:53;18.10;99.90
42479;DHT22;28110;47.080;9.476;2023-04-29T08:11:20;18.10;99.90
42479;DHT22;28110;47.080;9.476;2023-04-29T08:13:46;18.20;99.90
42479;DHT22;28110;47.080;9.476;2023-04-29T08:16:12;18.30;99.90
42479;DHT22;28110;47.080;9.476;2023-04-29T08:18:38;18.30;99.90
42479;DHT22;28110;47.080;9.476;2023-04-29T08:21:04;18.50;99.90
42479;DHT22;28110;47.080;9.476;2023-04-29T08:23:31;18.60;99.90
42479;DHT22;28110;47.080;9.476;2023-04-29T08:25:57;18.70;99.90
42479;DHT22;28110;47.080;9.476;2023-04-29T08:28:23;18.80;99.90
42479;DHT22;28110;47.080;9.476;2023-04-29T08:30:49;18.80;99.90
42479;DHT22;28110;47.080;9.476;2023-04-29T08:33:15;18.90;99.90
42479;DHT22;28110;47.080;9.476;2023-04-29T08:35:41;19.00;99.90
42479;DHT22;28110;47.080;9.476;2023-04-29T08:38:07;19.10;99.90
42479;DHT22;28110;47.080;9.476;2023-04-29T08:40:44;19.00;99.90
42479;DHT22;28110;47.080;9.476;2023-04-29T08:43:12;19.10;99.90
42479;DHT22;28110;47.080;9.476;2023-04-29T08:45:39;19.20;99.90
42479;DHT22;28110;47.080;9.476;2023-04-29T08:48:06;19.40;99.90
42479;DHT22;28110;47.080;9.476;2023-04-29T08:50:36;19.40;99.90
42479;DHT22;28110;47.080;9.476;2023-04-29T08:53:03;19.50;99.90
42479;DHT22;28110;47.080;9.476;2023-04-29T08:55:30;19.60;99.90
42479;DHT22;28110;47.080;9.476;2023-04-29T08:57:56;19.50;99.90
42479;DHT22;28110;47.080;9.476;2023-04-29T09:00:23;19.50;99.90
42479;DHT22;28110;47.080;9.476;2023-04-29T09:02:50;19.60;99.90
42479;DHT22;28110;47.080;9.476;2023-04-29T09:05:18;19.60;99.90
42479;DHT22;28110;47.080;9.476;2023-04-29T09:07:43;19.70;99.90
42479;DHT22;28110;47.080;9.476;2023-04-29T09:10:10;19.70;99.90
42479;DHT22;28110;47.080;9.476;2023-04-29T09:12:36;19.80;99.90
42479;DHT22;28110;47.080;9.476;2023-04-29T09:15:02;19.90;99.90
42479;DHT22;28110;47.080;9.476;2023-04-29T09:17:45;20.00;99.90
42479;DHT22;28110;47.080;9.476;2023-04-29T09:22:50;20.10;99.90
42479;DHT22;28110;47.080;9.476;2023-04-29T09:25:15;20.10;99.90
42479;DHT22;28110;47.080;9.476;2023-04-29T09:27:41;20.10;99.90
42479;DHT22;28110;47.080;9.476;2023-04-29T09:30:07;20.20;99.90
42479;DHT22;28110;47.080;9.476;2023-04-29T09:32:33;20.30;99.90
42479;DHT22;28110;47.080;9.476;2023-04-29T09:35:26;20.30;99.90
42479;DHT22;28110;47.080;9.476;2023-04-29T09:37:52;20.40;99.90
42479;DHT22;28110;47.080;9.476;2023-04-29T09:40:31;20.50;99.90
42479;DHT22;28110;47.080;9.476;2023-04-29T09:42:57;20.50;99.90
42479;DHT22;28110;47.080;9.476;2023-04-29T09:45:38;20.60;99.90
42479;DHT22;28110;47.080;9.476;2023-04-29T09:48:04;20.60;99.90
42479;DHT22;28110;47.080;9.476;2023-04-29T09:50:31;20.70;99.90
42479;DHT22;28110;47.080;9.476;2023-04-29T09:52:57;20.80;99.90
42479;DHT22;28110;47.080;9.476;2023-04-29T09:55:23;20.80;99.90
42479;DHT22;28110;47.080;9.476;2023-04-29T09:57:48;20.70;99.90
42479;DHT22;28110;47.080;9.476;2023-04-29T10:00:14;20.50;99.90
42479;DHT22;28110;47.080;9.476;2023-04-29T10:02:41;20.30;99.90
42479;DHT22;28110;47.080;9.476;2023-04-29T10:05:08;20.30;99.90
42479;DHT22;28110;47.080;9.476;2023-04-29T10:07:35;20.30;99.90
42479;DHT22;28110;47.080;9.476;2023-04-29T10:10:03;20.20;99.90
42479;DHT22;28110;47.080;9.476;2023-04-29T10:12:31;20.30;99.90
42479;DHT22;28110;47.080;9.476;2023-04-29T10:15:26;20.50;99.90
42479;DHT22;28110;47.080;9.476;2023-04-29T10:17:58;20.70;99.90
42479;DHT22;28110;47.080;9.476;2023-04-29T10:20:24;21.00;99.90
42479;DHT22;28110;47.080;9.476;2023-04-29T10:22:54;21.20;99.90
42479;DHT22;28110;47.080;9.476;2023-04-29T10:25:21;21.40;99.90
42479;DHT22;28110;47.080;9.476;2023-04-29T10:27:48;21.60;99.90
42479;DHT22;28110;47.080;9.476;2023-04-29T10:30:17;21.70;99.90
42479;DHT22;28110;47.080;9.476;2023-04-29T10:32:44;21.60;99.90
42479;DHT22;28110;47.080;9.476;2023-04-29T10:35:11;21.60;99.90
42479;DHT22;28110;47.080;9.476;2023-04-29T10:37:38;21.60;99.90
42479;DHT22;28110;47.080;9.476;2023-04-29T10:40:13;21.60;99.90
42479;DHT22;28110;47.080;9.476;2023-04-29T10:42:49;21.70;99.90
42479;DHT22;28110;47.080;9.476;2023-04-29T10:45:21;21.70;99.90
42479;DHT22;28110;47.080;9.476;2023-04-29T10:50:59;22.00;99.90
42479;DHT22;28110;47.080;9.476;2023-04-29T10:53:26;22.10;99.90
42479;DHT22;28110;47.080;9.476;2023-04-29T10:56:11;22.10;99.90
42479;DHT22;28110;47.080;9.476;2023-04-29T10:58:43;22.20;99.90
42479;DHT22;28110;47.080;9.476;2023-04-29T11:01:11;22.30;99.90
42479;DHT22;28110;47.080;9.476;2023-04-29T11:06:23;22.30;99.90
42479;DHT22;28110;47.080;9.476;2023-04-29T11:09:03;22.40;99.90
42479;DHT22;28110;47.080;9.476;2023-04-29T11:14:09;22.30;99.90
42479;DHT22;28110;47.080;9.476;2023-04-29T11:16:37;22.40;99.90
42479;DHT22;28110;47.080;9.476;2023-04-29T11:19:14;22.40;99.90
42479;DHT22;28110;47.080;9.476;2023-04-29T11:21:40;22.40;99.90
42479;DHT22;28110;47.080;9.476;2023-04-29T11:24:05;22.40;99.90
42479;DHT22;28110;47.080;9.476;2023-04-29T11:26:33;22.50;99.90
42479;DHT22;28110;47.080;9.476;2023-04-29T11:28:59;22.60;99.90
42479;DHT22;28110;47.080;9.476;2023-04-29T11:31:31;22.60;99.90
42479;DHT22;28110;47.080;9.476;2023-04-29T11:33:57;22.70;99.90
42479;DHT22;28110;47.080;9.476;2023-04-29T11:36:23;22.80;99.90
42479;DHT22;28110;47.080;9.476;2023-04-29T11:38:49;22.80;99.80
42479;DHT22;28110;47.080;9.476;2023-04-29T11:41:15;22.70;97.80
42479;DHT22;28110;47.080;9.476;2023-04-29T11:43:41;22.80;97.60
42479;DHT22;28110;47.080;9.476;2023-04-29T11:46:12;22.70;96.40
42479;DHT22;28110;47.080;9.476;2023-04-29T11:48:45;22.70;94.20
42479;DHT22;28110;47.080;9.476;2023-04-29T11:51:11;22.70;93.40
42479;DHT22;28110;47.080;9.476;2023-04-29T11:53:37;22.60;95.70
42479;DHT22;28110;47.080;9.476;2023-04-29T11:56:03;22.60;95.80
42479;DHT22;28110;47.080;9.476;2023-04-29T11:58:29;22.50;95.40
42479;DHT22;28110;47.080;9.476;2023-04-29T12:00:57;22.30;93.70
42479;DHT22;28110;47.080;9.476;2023-04-29T12:03:23;22.30;94.30
42479;DHT22;28110;47.080;9.476;2023-04-29T12:05:53;22.30;93.90
42479;DHT22;28110;47.080;9.476;2023-04-29T12:08:27;22.30;91.20
42479;DHT22;28110;47.080;9.476;2023-04-29T12:10:57;22.20;93.00
42479;DHT22;28110;47.080;9.476;2023-04-29T12:13:26;22.10;90.00
42479;DHT22;28110;47.080;9.476;2023-04-29T12:15:52;22.00;91.00
42479;DHT22;28110;47.080;9.476;2023-04-29T12:18:18;21.90;92.20
42479;DHT22;28110;47.080;9.476;2023-04-29T12:20:44;21.70;92.00
42479;DHT22;28110;47.080;9.476;2023-04-29T12:23:15;21.60;92.00
42479;DHT22;28110;47.080;9.476;2023-04-29T12:25:49;21.70;92.60
42479;DHT22;28110;47.080;9.476;2023-04-29T12:28:15;21.70;92.90
42479;DHT22;28110;47.080;9.476;2023-04-29T12:30:45;21.60;93.60
42479;DHT22;28110;47.080;9.476;2023-04-29T12:33:25;21.70;94.90
42479;DHT22;28110;47.080;9.476;2023-04-29T12:35:52;21.60;95.30
42479;DHT22;28110;47.080;9.476;2023-04-29T12:38:25;21.50;98.10
42479;DHT22;28110;47.080;9.476;2023-04-29T12:40:54;21.40;97.90
42479;DHT22;28110;47.080;9.476;2023-04-29T12:43:30;21.40;97.40
42479;DHT22;28110;47.080;9.476;2023-04-29T12:46:05;21.30;96.90
42479;DHT22;28110;47.080;9.476;2023-04-29T12:48:33;21.30;95.10
42479;DHT22;28110;47.080;9.476;2023-04-29T12:51:00;21.20;96.30
42479;DHT22;28110;47.080;9.476;2023-04-29T12:53:27;21.10;97.70
42479;DHT22;28110;47.080;9.476;2023-04-29T12:55:53;21.10;99.90
42479;DHT22;28110;47.080;9.476;2023-04-29T12:58:19;21.10;99.90
42479;DHT22;28110;47.080;9.476;2023-04-29T13:00:45;21.00;99.90
42479;DHT22;28110;47.080;9.476;2023-04-29T13:03:11;20.80;99.90
42479;DHT22;28110;47.080;9.476;2023-04-29T13:05:36;20.80;99.90
42479;DHT22;28110;47.080;9.476;2023-04-29T13:08:02;20.80;99.90
42479;DHT22;28110;47.080;9.476;2023-04-29T13:10:31;20.70;99.90
42479;DHT22;28110;47.080;9.476;2023-04-29T13:12:57;20.70;99.90
42479;DHT22;28110;47.080;9.476;2023-04-29T13:15:23;20.60;99.90
42479;DHT22;28110;47.080;9.476;2023-04-29T13:17:49;20.60;99.90
42479;DHT22;28110;47.080;9.476;2023-04-29T13:20:14;20.70;99.90
42479;DHT22;28110;47.080;9.476;2023-04-29T13:22:40;20.60;99.90
42479;DHT22;28110;47.080;9.476;2023-04-29T13:25:08;20.50;99.90
42479;DHT22;28110;47.080;9.476;2023-04-29T13:27:34;20.40;99.90
42479;DHT22;28110;47.080;9.476;2023-04-29T13:30:00;20.40;99.90
42479;DHT22;28110;47.080;9.476;2023-04-29T13:32:25;20.40;99.90
42479;DHT22;28110;47.080;9.476;2023-04-29T13:34:51;20.40;99.90
42479;DHT22;28110;47.080;9.476;2023-04-29T13:37:17;20.30;99.90
42479;DHT22;28110;47.080;9.476;2023-04-29T13:39:44;20.30;99.90
42479;DHT22;28110;47.080;9.476;2023-04-29T13:42:09;20.20;99.90
42479;DHT22;28110;47.080;9.476;2023-04-29T13:44:35;20.20;99.90
42479;DHT22;28110;47.080;9.476;2023-04-29T13:47:01;20.20;99.90
42479;DHT22;28110;47.080;9.476;2023-04-29T13:49:28;20.20;99.90
42479;DHT22;28110;47.080;9.476;2023-04-29T13:51:53;20.20;99.90
42479;DHT22;28110;47.080;9.476;2023-04-29T13:54:19;20.20;99.90
42479;DHT22;28110;47.080;9.476;2023-04-29T13:56:47;20.20;99.90
42479;DHT22;28110;47.080;9.476;2023-04-29T13:59:13;20.30;99.90
42479;DHT22;28110;47.080;9.476;2023-04-29T14:01:38;20.30;99.90
42479;DHT22;28110;47.080;9.476;2023-04-29T14:04:04;20.40;99.90
42479;DHT22;28110;47.080;9.476;2023-04-29T14:06:29;20.40;99.90
42479;DHT22;28110;47.080;9.476;2023-04-29T14:08:57;20.30;99.90
42479;DHT22;28110;47.080;9.476;2023-04-29T14:11:23;20.40;99.90
42479;DHT22;28110;47.080;9.476;2023-04-29T14:13:48;20.40;99.90
42479;DHT22;28110;47.080;9.476;2023-04-29T14:16:14;20.50;99.90
42479;DHT22;28110;47.080;9.476;2023-04-29T14:18:40;20.60;99.90
42479;DHT22;28110;47.080;9.476;2023-04-29T14:21:05;20.70;99.90
42479;DHT22;28110;47.080;9.476;2023-04-29T14:23:31;20.70;99.90
42479;DHT22;28110;47.080;9.476;2023-04-29T14:25:56;20.70;99.90
42479;DHT22;28110;47.080;9.476;2023-04-29T14:28:22;20.70;99.90
42479;DHT22;28110;47.080;9.476;2023-04-29T14:30:47;20.70;99.90
42479;DHT22;28110;47.080;9.476;2023-04-29T14:33:13;20.80;99.90
42479;DHT22;28110;47.080;9.476;2023-04-29T14:35:38;20.80;99.90
42479;DHT22;28110;47.080;9.476;2023-04-29T14:38:04;20.70;99.90
42479;DHT22;28110;47.080;9.476;2023-04-29T14:40:29;20.80;99.90
42479;DHT22;28110;47.080;9.476;2023-04-29T14:42:55;20.80;99.90
42479;DHT22;28110;47.080;9.476;2023-04-29T14:45:21;20.80;99.90
42479;DHT22;28110;47.080;9.476;2023-04-29T14:47:46;20.80;99.90
42479;DHT22;28110;47.080;9.476;2023-04-29T14:50:12;21.00;99.90
42479;DHT22;28110;47.080;9.476;2023-04-29T14:52:38;21.00;99.90
42479;DHT22;28110;47.080;9.476;2023-04-29T14:55:03;21.10;99.90
42479;DHT22;28110;47.080;9.476;2023-04-29T14:57:29;21.00;99.90
42479;DHT22;28110;47.080;9.476;2023-04-29T14:59:55;20.90;99.90
42479;DHT22;28110;47.080;9.476;2023-04-29T15:02:21;20.80;99.90
42479;DHT22;28110;47.080;9.476;2023-04-29T15:04:46;20.70;99.90
42479;DHT22;28110;47.080;9.476;2023-04-29T15:07:12;20.70;99.90
42479;DHT22;28110;47.080;9.476;2023-04-29T15:09:38;20.60;99.90
42479;DHT22;28110;47.080;9.476;2023-04-29T15:12:04;20.50;99.90
42479;DHT22;28110;47.080;9.476;2023-04-29T15:14:30;20.50;99.30
42479;DHT22;28110;47.080;9.476;2023-04-29T15:16:55;20.50;98.60
42479;DHT22;28110;47.080;9.476;2023-04-29T15:19:21;20.40;98.40
42479;DHT22;28110;47.080;9.476;2023-04-29T15:21:49;20.40;98.60
42479;DHT22;28110;47.080;9.476;2023-04-29T15:24:15;20.40;98.70
42479;DHT22;28110;47.080;9.476;2023-04-29T15:26:41;20.40;97.70
42479;DHT22;28110;47.080;9.476;2023-04-29T15:29:06;20.40;97.60
42479;DHT22;28110;47.080;9.476;2023-04-29T15:31:32;20.40;97.80
42479;DHT22;28110;47.080;9.476;2023-04-29T15:33:57;20.50;97.70
42479;DHT22;28110;47.080;9.476;2023-04-29T15:36:27;20.50;97.40
42479;DHT22;28110;47.080;9.476;2023-04-29T15:38:54;20.50;97.40
42479;DHT22;28110;47.080;9.476;2023-04-29T15:41:19;20.40;96.40
42479;DHT22;28110;47.080;9.476;2023-04-29T15:43:46;20.30;97.50
42479;DHT22;28110;47.080;9.476;2023-04-29T15:46:11;20.10;99.20
42479;DHT22;28110;47.080;9.476;2023-04-29T15:48:37;19.90;99.90